Decoded Metar for ULLI (ST. PETERSBURG in RUSSIA) (IATA:LED) | Meteo·Mobile Aviation Weather
aviador You're here:

ULLI Decoded Metar

ST. PETERSBURG in RUSSIA
Report Time2018-12-16 15:00:00
UTC Time2018-12-16 15:32:11
Flight Rules lifr LIFR
Wind110° at 8 kt
W.Decomp.*RWY 10: 8.0 kt HW 0.1 kt RCW
W.Rank110° ranks 6
Current wind is above 110° avg. (6.9)
Visibility5000 m
Phenomena:Mist
Clouds:Overcast 003 Hf
Expected CloudBase > 400 ft AGL from Temp-Dew spread
Ceiling300 ft
Temp-8°C (ISA -23)
Dew Point-9°C (93% RH)
AAT-13.9°C
QNH1035 hPa
Density Alt-3,556 ft
Elevation13 ft
Report Wrong Elevation
Raw Report
METAR ULLI 161500Z 11004MPS 090V160 5000 BR OVC003 M08/M09 Q1035 R10R/290050
R10L/190055 NOSIG RMK QBB110 OBST OBSC=

Extra information for ULLI:More info

Metar Taf Metar & Taf Last 4 Metars F.Rules Stats Wind Profile Meteogram Temp Stats Airport Information Weather charts Add Link Nearby VenuesMetar ALERT Operation Metar Decoded Social comments